sensor_id;sensor_type;location;lat;lon;timestamp;temperature;humidity
18408;DHT22;9330;52.210;21.174;2022-10-26T00:01:32;12.10;99.90
18408;DHT22;9330;52.210;21.174;2022-10-26T00:03:59;12.10;99.90
18408;DHT22;9330;52.210;21.174;2022-10-26T00:06:26;12.10;99.90
18408;DHT22;9330;52.210;21.174;2022-10-26T00:08:55;12.10;99.90
18408;DHT22;9330;52.210;21.174;2022-10-26T00:11:23;12.20;99.90
18408;DHT22;9330;52.210;21.174;2022-10-26T00:13:50;12.20;99.90
18408;DHT22;9330;52.210;21.174;2022-10-26T00:16:21;12.20;99.90
18408;DHT22;9330;52.210;21.174;2022-10-26T00:18:49;12.30;99.90
18408;DHT22;9330;52.210;21.174;2022-10-26T00:21:16;12.30;99.90
18408;DHT22;9330;52.210;21.174;2022-10-26T00:23:43;12.30;99.90
18408;DHT22;9330;52.210;21.174;2022-10-26T00:26:11;12.30;99.90
18408;DHT22;9330;52.210;21.174;2022-10-26T00:28:38;12.30;99.90
18408;DHT22;9330;52.210;21.174;2022-10-26T00:31:13;12.40;99.90
18408;DHT22;9330;52.210;21.174;2022-10-26T00:33:42;12.40;99.90
18408;DHT22;9330;52.210;21.174;2022-10-26T00:36:09;12.40;99.90
18408;DHT22;9330;52.210;21.174;2022-10-26T00:38:38;12.40;99.90
18408;DHT22;9330;52.210;21.174;2022-10-26T00:41:13;12.40;99.90
18408;DHT22;9330;52.210;21.174;2022-10-26T00:43:40;12.50;99.90
18408;DHT22;9330;52.210;21.174;2022-10-26T00:46:10;12.40;99.90
18408;DHT22;9330;52.210;21.174;2022-10-26T00:48:43;12.40;99.90
18408;DHT22;9330;52.210;21.174;2022-10-26T00:51:15;12.40;99.90
18408;DHT22;9330;52.210;21.174;2022-10-26T00:53:43;12.40;99.90
18408;DHT22;9330;52.210;21.174;2022-10-26T00:56:11;12.40;99.90
18408;DHT22;9330;52.210;21.174;2022-10-26T00:58:38;12.30;99.90
18408;DHT22;9330;52.210;21.174;2022-10-26T01:01:05;12.40;99.90
18408;DHT22;9330;52.210;21.174;2022-10-26T01:03:33;12.30;99.90
18408;DHT22;9330;52.210;21.174;2022-10-26T01:06:03;12.30;99.90
18408;DHT22;9330;52.210;21.174;2022-10-26T01:08:31;12.40;99.90
18408;DHT22;9330;52.210;21.174;2022-10-26T01:10:58;12.40;99.90
18408;DHT22;9330;52.210;21.174;2022-10-26T01:13:27;12.40;99.90
18408;DHT22;9330;52.210;21.174;2022-10-26T01:16:12;12.40;99.90
18408;DHT22;9330;52.210;21.174;2022-10-26T01:18:51;12.40;99.90
18408;DHT22;9330;52.210;21.174;2022-10-26T01:21:40;12.50;99.90
18408;DHT22;9330;52.210;21.174;2022-10-26T01:24:33;12.40;99.90
18408;DHT22;9330;52.210;21.174;2022-10-26T01:27:19;12.40;99.90
18408;DHT22;9330;52.210;21.174;2022-10-26T01:30:10;12.50;99.90
18408;DHT22;9330;52.210;21.174;2022-10-26T01:32:39;12.50;99.90
18408;DHT22;9330;52.210;21.174;2022-10-26T01:35:11;12.40;99.90
18408;DHT22;9330;52.210;21.174;2022-10-26T01:37:44;12.40;99.90
18408;DHT22;9330;52.210;21.174;2022-10-26T01:40:16;12.40;99.90
18408;DHT22;9330;52.210;21.174;2022-10-26T01:42:48;12.40;99.90
18408;DHT22;9330;52.210;21.174;2022-10-26T01:45:18;12.40;99.90
18408;DHT22;9330;52.210;21.174;2022-10-26T01:47:46;12.40;99.90
18408;DHT22;9330;52.210;21.174;2022-10-26T01:50:14;12.40;99.90
18408;DHT22;9330;52.210;21.174;2022-10-26T01:52:42;12.40;99.90
18408;DHT22;9330;52.210;21.174;2022-10-26T01:55:43;12.30;99.90
18408;DHT22;9330;52.210;21.174;2022-10-26T02:01:10;12.40;99.90
18408;DHT22;9330;52.210;21.174;2022-10-26T02:03:44;12.40;99.90
18408;DHT22;9330;52.210;21.174;2022-10-26T02:06:18;12.40;99.90
18408;DHT22;9330;52.210;21.174;2022-10-26T02:08:57;12.40;99.90
18408;DHT22;9330;52.210;21.174;2022-10-26T02:11:35;12.30;99.90
18408;DHT22;9330;52.210;21.174;2022-10-26T02:14:10;12.30;99.90
18408;DHT22;9330;52.210;21.174;2022-10-26T02:16:46;12.30;99.90
18408;DHT22;9330;52.210;21.174;2022-10-26T02:19:24;12.30;99.90
18408;DHT22;9330;52.210;21.174;2022-10-26T02:21:59;12.30;99.90
18408;DHT22;9330;52.210;21.174;2022-10-26T02:24:30;12.30;99.90
18408;DHT22;9330;52.210;21.174;2022-10-26T02:27:00;12.30;99.90
18408;DHT22;9330;52.210;21.174;2022-10-26T02:29:30;12.20;99.90
18408;DHT22;9330;52.210;21.174;2022-10-26T02:32:00;12.20;99.90
18408;DHT22;9330;52.210;21.174;2022-10-26T02:34:28;12.20;99.90
18408;DHT22;9330;52.210;21.174;2022-10-26T02:36:58;12.10;99.90
18408;DHT22;9330;52.210;21.174;2022-10-26T02:39:29;12.20;99.90
18408;DHT22;9330;52.210;21.174;2022-10-26T02:42:00;12.10;99.90
18408;DHT22;9330;52.210;21.174;2022-10-26T02:44:30;12.10;99.90
18408;DHT22;9330;52.210;21.174;2022-10-26T02:47:00;12.10;99.90
18408;DHT22;9330;52.210;21.174;2022-10-26T02:49:27;12.10;99.90
18408;DHT22;9330;52.210;21.174;2022-10-26T02:52:01;12.10;99.90
18408;DHT22;9330;52.210;21.174;2022-10-26T02:54:33;12.10;99.90
18408;DHT22;9330;52.210;21.174;2022-10-26T02:57:06;12.20;99.90
18408;DHT22;9330;52.210;21.174;2022-10-26T02:59:37;12.20;99.90
18408;DHT22;9330;52.210;21.174;2022-10-26T03:02:07;12.20;99.90
18408;DHT22;9330;52.210;21.174;2022-10-26T03:04:34;12.20;99.90
18408;DHT22;9330;52.210;21.174;2022-10-26T03:07:01;12.20;99.90
18408;DHT22;9330;52.210;21.174;2022-10-26T03:09:28;12.30;99.90
18408;DHT22;9330;52.210;21.174;2022-10-26T03:11:55;12.30;99.90
18408;DHT22;9330;52.210;21.174;2022-10-26T03:14:22;12.30;99.90
18408;DHT22;9330;52.210;21.174;2022-10-26T03:16:49;12.30;99.90
18408;DHT22;9330;52.210;21.174;2022-10-26T03:19:17;12.30;99.90
18408;DHT22;9330;52.210;21.174;2022-10-26T03:21:44;12.30;99.90
18408;DHT22;9330;52.210;21.174;2022-10-26T03:24:11;12.30;99.90
18408;DHT22;9330;52.210;21.174;2022-10-26T03:26:38;12.30;99.90
18408;DHT22;9330;52.210;21.174;2022-10-26T03:29:05;12.30;99.90
18408;DHT22;9330;52.210;21.174;2022-10-26T03:31:33;12.30;99.90
18408;DHT22;9330;52.210;21.174;2022-10-26T03:34:00;12.30;99.90
18408;DHT22;9330;52.210;21.174;2022-10-26T03:36:28;12.30;99.90
18408;DHT22;9330;52.210;21.174;2022-10-26T03:38:55;12.30;99.90
18408;DHT22;9330;52.210;21.174;2022-10-26T03:41:22;12.30;99.90
18408;DHT22;9330;52.210;21.174;2022-10-26T03:43:49;12.30;99.90
18408;DHT22;9330;52.210;21.174;2022-10-26T03:46:16;12.30;99.90
18408;DHT22;9330;52.210;21.174;2022-10-26T03:48:43;12.20;99.90
18408;DHT22;9330;52.210;21.174;2022-10-26T03:51:10;12.30;99.90
18408;DHT22;9330;52.210;21.174;2022-10-26T03:53:38;12.30;99.90
18408;DHT22;9330;52.210;21.174;2022-10-26T03:56:06;12.30;99.90
18408;DHT22;9330;52.210;21.174;2022-10-26T03:58:33;12.30;99.90
18408;DHT22;9330;52.210;21.174;2022-10-26T04:00:59;12.30;99.90
18408;DHT22;9330;52.210;21.174;2022-10-26T04:03:26;12.30;99.90
18408;DHT22;9330;52.210;21.174;2022-10-26T04:05:53;12.30;99.90
18408;DHT22;9330;52.210;21.174;2022-10-26T04:08:20;12.30;99.90
18408;DHT22;9330;52.210;21.174;2022-10-26T04:10:48;12.30;99.90
18408;DHT22;9330;52.210;21.174;2022-10-26T04:13:15;12.30;99.90
18408;DHT22;9330;52.210;21.174;2022-10-26T04:15:43;12.30;99.90
18408;DHT22;9330;52.210;21.174;2022-10-26T04:18:10;12.30;99.90
18408;DHT22;9330;52.210;21.174;2022-10-26T04:20:38;12.30;99.90
18408;DHT22;9330;52.210;21.174;2022-10-26T04:23:08;12.30;99.90
18408;DHT22;9330;52.210;21.174;2022-10-26T04:25:35;12.20;99.90
18408;DHT22;9330;52.210;21.174;2022-10-26T04:28:05;12.20;99.90
18408;DHT22;9330;52.210;21.174;2022-10-26T04:30:33;12.20;99.90
18408;DHT22;9330;52.210;21.174;2022-10-26T04:33:00;12.20;99.90
18408;DHT22;9330;52.210;21.174;2022-10-26T04:35:27;12.20;99.90
18408;DHT22;9330;52.210;21.174;2022-10-26T04:37:57;12.20;99.90
18408;DHT22;9330;52.210;21.174;2022-10-26T04:40:24;12.20;99.90
18408;DHT22;9330;52.210;21.174;2022-10-26T04:42:51;12.20;99.90
18408;DHT22;9330;52.210;21.174;2022-10-26T04:45:20;12.20;99.90
18408;DHT22;9330;52.210;21.174;2022-10-26T04:47:47;12.20;99.90
18408;DHT22;9330;52.210;21.174;2022-10-26T04:50:24;12.20;99.90
18408;DHT22;9330;52.210;21.174;2022-10-26T04:52:52;12.20;99.90
18408;DHT22;9330;52.210;21.174;2022-10-26T04:55:19;12.10;99.90
18408;DHT22;9330;52.210;21.174;2022-10-26T04:57:46;12.10;99.90
18408;DHT22;9330;52.210;21.174;2022-10-26T05:00:13;12.10;99.90
18408;DHT22;9330;52.210;21.174;2022-10-26T05:02:41;12.10;99.90
18408;DHT22;9330;52.210;21.174;2022-10-26T05:05:09;12.10;99.90
18408;DHT22;9330;52.210;21.174;2022-10-26T05:07:36;12.10;99.90
18408;DHT22;9330;52.210;21.174;2022-10-26T05:10:03;12.10;99.90
18408;DHT22;9330;52.210;21.174;2022-10-26T05:12:31;12.10;99.90
18408;DHT22;9330;52.210;21.174;2022-10-26T05:14:57;12.10;99.90
18408;DHT22;9330;52.210;21.174;2022-10-26T05:17:25;12.10;99.90
18408;DHT22;9330;52.210;21.174;2022-10-26T05:19:54;12.10;99.90
18408;DHT22;9330;52.210;21.174;2022-10-26T05:22:22;12.10;99.90
18408;DHT22;9330;52.210;21.174;2022-10-26T05:24:50;12.10;99.90
18408;DHT22;9330;52.210;21.174;2022-10-26T05:27:17;12.10;99.90
18408;DHT22;9330;52.210;21.174;2022-10-26T05:29:44;12.10;99.90
18408;DHT22;9330;52.210;21.174;2022-10-26T05:32:10;12.00;99.90
18408;DHT22;9330;52.210;21.174;2022-10-26T05:34:37;12.00;99.90
18408;DHT22;9330;52.210;21.174;2022-10-26T05:37:06;12.00;99.90
18408;DHT22;9330;52.210;21.174;2022-10-26T05:39:33;12.00;99.90
18408;DHT22;9330;52.210;21.174;2022-10-26T05:42:00;12.00;99.90
18408;DHT22;9330;52.210;21.174;2022-10-26T05:44:27;12.00;99.90
18408;DHT22;9330;52.210;21.174;2022-10-26T05:46:53;12.00;99.90
18408;DHT22;9330;52.210;21.174;2022-10-26T05:49:20;12.00;99.90
18408;DHT22;9330;52.210;21.174;2022-10-26T05:51:47;12.00;99.90
18408;DHT22;9330;52.210;21.174;2022-10-26T05:54:16;12.00;99.90
18408;DHT22;9330;52.210;21.174;2022-10-26T05:56:43;12.00;99.90
18408;DHT22;9330;52.210;21.174;2022-10-26T05:59:12;12.00;99.90
18408;DHT22;9330;52.210;21.174;2022-10-26T06:01:51;12.00;99.90
18408;DHT22;9330;52.210;21.174;2022-10-26T06:04:26;11.90;99.90
18408;DHT22;9330;52.210;21.174;2022-10-26T06:06:56;12.00;99.90
18408;DHT22;9330;52.210;21.174;2022-10-26T06:09:26;11.90;99.90
18408;DHT22;9330;52.210;21.174;2022-10-26T06:11:53;12.00;99.90
18408;DHT22;9330;52.210;21.174;2022-10-26T06:14:21;12.00;99.90
18408;DHT22;9330;52.210;21.174;2022-10-26T06:17:00;12.00;99.90
18408;DHT22;9330;52.210;21.174;2022-10-26T06:19:45;12.00;99.90
18408;DHT22;9330;52.210;21.174;2022-10-26T06:22:25;12.00;99.90
18408;DHT22;9330;52.210;21.174;2022-10-26T06:25:03;12.00;99.90
18408;DHT22;9330;52.210;21.174;2022-10-26T06:27:41;12.00;99.90
18408;DHT22;9330;52.210;21.174;2022-10-26T06:30:10;12.10;99.90
18408;DHT22;9330;52.210;21.174;2022-10-26T06:32:38;12.10;99.90
18408;DHT22;9330;52.210;21.174;2022-10-26T06:35:21;12.10;99.90
18408;DHT22;9330;52.210;21.174;2022-10-26T06:37:51;12.10;99.90
18408;DHT22;9330;52.210;21.174;2022-10-26T06:40:21;12.10;99.90
18408;DHT22;9330;52.210;21.174;2022-10-26T06:42:49;12.10;99.90
18408;DHT22;9330;52.210;21.174;2022-10-26T06:45:17;12.10;99.90
18408;DHT22;9330;52.210;21.174;2022-10-26T06:47:50;12.20;99.90
18408;DHT22;9330;52.210;21.174;2022-10-26T06:50:28;12.20;99.90
18408;DHT22;9330;52.210;21.174;2022-10-26T06:53:04;12.20;99.90
18408;DHT22;9330;52.210;21.174;2022-10-26T06:55:39;12.20;99.90
18408;DHT22;9330;52.210;21.174;2022-10-26T06:58:08;12.20;99.90
18408;DHT22;9330;52.210;21.174;2022-10-26T07:00:38;12.20;99.90
18408;DHT22;9330;52.210;21.174;2022-10-26T07:03:05;12.30;99.90
18408;DHT22;9330;52.210;21.174;2022-10-26T07:05:32;12.30;99.90
18408;DHT22;9330;52.210;21.174;2022-10-26T07:07:59;12.30;99.90
18408;DHT22;9330;52.210;21.174;2022-10-26T07:10:26;12.30;99.90
18408;DHT22;9330;52.210;21.174;2022-10-26T07:12:54;12.30;99.90
18408;DHT22;9330;52.210;21.174;2022-10-26T07:15:21;12.30;99.90
18408;DHT22;9330;52.210;21.174;2022-10-26T07:17:48;12.30;99.90
18408;DHT22;9330;52.210;21.174;2022-10-26T07:20:17;12.40;99.90
18408;DHT22;9330;52.210;21.174;2022-10-26T07:22:48;12.40;99.90
18408;DHT22;9330;52.210;21.174;2022-10-26T07:25:16;12.50;99.90
18408;DHT22;9330;52.210;21.174;2022-10-26T07:27:43;12.50;99.90
18408;DHT22;9330;52.210;21.174;2022-10-26T07:30:12;12.50;99.90
18408;DHT22;9330;52.210;21.174;2022-10-26T07:32:39;12.60;99.90
18408;DHT22;9330;52.210;21.174;2022-10-26T07:35:07;12.50;99.90
18408;DHT22;9330;52.210;21.174;2022-10-26T07:37:34;12.60;99.90
18408;DHT22;9330;52.210;21.174;2022-10-26T07:40:01;12.60;99.90
18408;DHT22;9330;52.210;21.174;2022-10-26T07:42:28;12.60;99.90
18408;DHT22;9330;52.210;21.174;2022-10-26T07:44:54;12.70;99.90
18408;DHT22;9330;52.210;21.174;2022-10-26T07:47:23;12.60;99.90
18408;DHT22;9330;52.210;21.174;2022-10-26T07:49:50;12.60;99.90
18408;DHT22;9330;52.210;21.174;2022-10-26T07:52:17;12.70;99.90
18408;DHT22;9330;52.210;21.174;2022-10-26T07:54:43;12.70;99.90
18408;DHT22;9330;52.210;21.174;2022-10-26T07:57:10;12.70;99.90
18408;DHT22;9330;52.210;21.174;2022-10-26T07:59:37;12.70;99.90
18408;DHT22;9330;52.210;21.174;2022-10-26T08:02:04;12.70;99.90
18408;DHT22;9330;52.210;21.174;2022-10-26T08:04:33;12.80;99.90
18408;DHT22;9330;52.210;21.174;2022-10-26T08:06:59;12.80;99.90
18408;DHT22;9330;52.210;21.174;2022-10-26T08:09:26;12.80;99.90
18408;DHT22;9330;52.210;21.174;2022-10-26T08:11:53;12.80;99.90
18408;DHT22;9330;52.210;21.174;2022-10-26T08:14:20;12.80;99.90
18408;DHT22;9330;52.210;21.174;2022-10-26T08:16:47;12.80;99.90
18408;DHT22;9330;52.210;21.174;2022-10-26T08:19:16;12.80;99.90
18408;DHT22;9330;52.210;21.174;2022-10-26T08:21:45;12.80;99.90
18408;DHT22;9330;52.210;21.174;2022-10-26T08:24:12;12.90;99.90
18408;DHT22;9330;52.210;21.174;2022-10-26T08:26:39;12.90;99.90
18408;DHT22;9330;52.210;21.174;2022-10-26T08:29:06;12.90;99.90
18408;DHT22;9330;52.210;21.174;2022-10-26T08:31:33;12.90;99.90
18408;DHT22;9330;52.210;21.174;2022-10-26T08:34:00;12.90;99.90
18408;DHT22;9330;52.210;21.174;2022-10-26T08:36:29;12.90;99.90
18408;DHT22;9330;52.210;21.174;2022-10-26T08:38:57;12.90;99.90
18408;DHT22;9330;52.210;21.174;2022-10-26T08:41:33;13.00;99.90
18408;DHT22;9330;52.210;21.174;2022-10-26T08:44:04;12.90;99.90
18408;DHT22;9330;52.210;21.174;2022-10-26T08:46:36;12.90;99.90
18408;DHT22;9330;52.210;21.174;2022-10-26T08:49:19;12.90;99.90
18408;DHT22;9330;52.210;21.174;2022-10-26T08:51:48;12.90;99.90
18408;DHT22;9330;52.210;21.174;2022-10-26T08:54:20;12.90;99.90
18408;DHT22;9330;52.210;21.174;2022-10-26T08:56:51;12.90;99.90
18408;DHT22;9330;52.210;21.174;2022-10-26T08:59:26;12.90;99.90
18408;DHT22;9330;52.210;21.174;2022-10-26T09:01:55;12.90;99.90
18408;DHT22;9330;52.210;21.174;2022-10-26T09:04:26;12.90;99.90
18408;DHT22;9330;52.210;21.174;2022-10-26T09:06:58;12.90;99.90
18408;DHT22;9330;52.210;21.174;2022-10-26T09:09:37;12.90;99.90
18408;DHT22;9330;52.210;21.174;2022-10-26T09:12:12;12.80;99.90
18408;DHT22;9330;52.210;21.174;2022-10-26T09:14:48;12.80;99.90
18408;DHT22;9330;52.210;21.174;2022-10-26T09:17:27;12.70;99.90
18408;DHT22;9330;52.210;21.174;2022-10-26T09:20:05;12.70;99.90
18408;DHT22;9330;52.210;21.174;2022-10-26T09:22:42;12.80;99.90
18408;DHT22;9330;52.210;21.174;2022-10-26T09:25:18;12.80;99.90
18408;DHT22;9330;52.210;21.174;2022-10-26T09:27:48;12.80;99.90
18408;DHT22;9330;52.210;21.174;2022-10-26T09:30:19;12.70;99.90
18408;DHT22;9330;52.210;21.174;2022-10-26T09:32:47;12.80;99.90
18408;DHT22;9330;52.210;21.174;2022-10-26T09:35:18;12.80;99.90
18408;DHT22;9330;52.210;21.174;2022-10-26T09:37:48;12.80;99.90
18408;DHT22;9330;52.210;21.174;2022-10-26T09:40:22;12.80;99.90
18408;DHT22;9330;52.210;21.174;2022-10-26T09:42:54;12.80;99.90
18408;DHT22;9330;52.210;21.174;2022-10-26T09:45:26;12.90;99.90
18408;DHT22;9330;52.210;21.174;2022-10-26T09:47:56;12.90;99.90
18408;DHT22;9330;52.210;21.174;2022-10-26T09:50:29;12.80;99.90
18408;DHT22;9330;52.210;21.174;2022-10-26T09:52:57;12.80;99.90
18408;DHT22;9330;52.210;21.174;2022-10-26T09:55:26;12.90;99.90
18408;DHT22;9330;52.210;21.174;2022-10-26T09:57:55;12.90;99.90
18408;DHT22;9330;52.210;21.174;2022-10-26T10:00:24;12.90;99.90
18408;DHT22;9330;52.210;21.174;2022-10-26T10:02:54;12.90;99.90
18408;DHT22;9330;52.210;21.174;2022-10-26T10:05:27;12.80;99.90
18408;DHT22;9330;52.210;21.174;2022-10-26T10:08:14;12.90;99.90
18408;DHT22;9330;52.210;21.174;2022-10-26T10:10:58;12.90;99.90
18408;DHT22;9330;52.210;21.174;2022-10-26T10:13:27;13.00;99.90
18408;DHT22;9330;52.210;21.174;2022-10-26T10:16:02;13.00;99.90
18408;DHT22;9330;52.210;21.174;2022-10-26T10:18:30;13.00;99.90
18408;DHT22;9330;52.210;21.174;2022-10-26T10:20:58;13.00;99.90
18408;DHT22;9330;52.210;21.174;2022-10-26T10:23:30;13.00;99.90
18408;DHT22;9330;52.210;21.174;2022-10-26T10:26:01;13.10;99.90
18408;DHT22;9330;52.210;21.174;2022-10-26T10:28:28;13.20;99.90
18408;DHT22;9330;52.210;21.174;2022-10-26T10:30:57;13.20;99.90
18408;DHT22;9330;52.210;21.174;2022-10-26T10:33:39;13.30;99.90
18408;DHT22;9330;52.210;21.174;2022-10-26T10:36:09;13.30;99.90
18408;DHT22;9330;52.210;21.174;2022-10-26T10:38:40;13.30;99.90
18408;DHT22;9330;52.210;21.174;2022-10-26T10:41:19;13.30;99.90
18408;DHT22;9330;52.210;21.174;2022-10-26T10:43:49;13.30;99.90
18408;DHT22;9330;52.210;21.174;2022-10-26T10:46:19;13.30;99.90
18408;DHT22;9330;52.210;21.174;2022-10-26T10:48:50;13.40;99.90
18408;DHT22;9330;52.210;21.174;2022-10-26T10:51:19;13.40;99.90
18408;DHT22;9330;52.210;21.174;2022-10-26T10:53:49;13.40;99.90
18408;DHT22;9330;52.210;21.174;2022-10-26T10:56:37;13.50;99.90
18408;DHT22;9330;52.210;21.174;2022-10-26T10:59:31;13.60;99.90
18408;DHT22;9330;52.210;21.174;2022-10-26T11:05:19;13.60;99.90
18408;DHT22;9330;52.210;21.174;2022-10-26T11:07:51;13.60;99.90
18408;DHT22;9330;52.210;21.174;2022-10-26T11:10:22;13.60;99.90
18408;DHT22;9330;52.210;21.174;2022-10-26T11:12:56;13.60;99.90
18408;DHT22;9330;52.210;21.174;2022-10-26T11:15:28;13.60;99.90
18408;DHT22;9330;52.210;21.174;2022-10-26T11:18:00;13.60;99.90
18408;DHT22;9330;52.210;21.174;2022-10-26T11:20:34;13.70;99.90
18408;DHT22;9330;52.210;21.174;2022-10-26T11:23:08;13.60;99.90
18408;DHT22;9330;52.210;21.174;2022-10-26T11:25:40;13.70;99.90
18408;DHT22;9330;52.210;21.174;2022-10-26T11:28:15;13.70;99.90
18408;DHT22;9330;52.210;21.174;2022-10-26T11:30:46;13.80;99.90
18408;DHT22;9330;52.210;21.174;2022-10-26T11:33:19;13.80;99.90
18408;DHT22;9330;52.210;21.174;2022-10-26T11:35:52;13.80;99.90
18408;DHT22;9330;52.210;21.174;2022-10-26T11:38:28;13.80;99.90
18408;DHT22;9330;52.210;21.174;2022-10-26T11:41:00;13.80;99.90
18408;DHT22;9330;52.210;21.174;2022-10-26T11:43:35;13.80;99.90
18408;DHT22;9330;52.210;21.174;2022-10-26T11:46:08;13.80;99.90
18408;DHT22;9330;52.210;21.174;2022-10-26T11:48:41;13.80;99.90
18408;DHT22;9330;52.210;21.174;2022-10-26T11:51:15;13.80;99.90
18408;DHT22;9330;52.210;21.174;2022-10-26T11:53:44;13.80;99.90
18408;DHT22;9330;52.210;21.174;2022-10-26T11:56:18;13.80;99.90
18408;DHT22;9330;52.210;21.174;2022-10-26T11:58:49;13.90;99.90
18408;DHT22;9330;52.210;21.174;2022-10-26T12:01:17;13.80;99.90
18408;DHT22;9330;52.210;21.174;2022-10-26T12:03:47;13.80;99.90
18408;DHT22;9330;52.210;21.174;2022-10-26T12:06:19;13.90;99.90
18408;DHT22;9330;52.210;21.174;2022-10-26T12:08:50;13.90;99.90
18408;DHT22;9330;52.210;21.174;2022-10-26T12:11:30;13.90;99.90
18408;DHT22;9330;52.210;21.174;2022-10-26T12:14:06;14.00;99.90
18408;DHT22;9330;52.210;21.174;2022-10-26T12:16:43;13.90;99.90
18408;DHT22;9330;52.210;21.174;2022-10-26T12:19:17;13.90;99.90
18408;DHT22;9330;52.210;21.174;2022-10-26T12:21:48;13.90;99.90
18408;DHT22;9330;52.210;21.174;2022-10-26T12:24:27;13.90;99.90
18408;DHT22;9330;52.210;21.174;2022-10-26T12:26:55;13.90;99.90
18408;DHT22;9330;52.210;21.174;2022-10-26T12:29:36;13.80;99.90
18408;DHT22;9330;52.210;21.174;2022-10-26T12:35:30;13.90;99.90
18408;DHT22;9330;52.210;21.174;2022-10-26T12:37:59;14.00;99.90
18408;DHT22;9330;52.210;21.174;2022-10-26T12:40:39;14.00;99.90
18408;DHT22;9330;52.210;21.174;2022-10-26T12:43:32;14.00;99.90
18408;DHT22;9330;52.210;21.174;2022-10-26T12:52:40;13.90;99.90
18408;DHT22;9330;52.210;21.174;2022-10-26T12:58:59;13.90;99.90
18408;DHT22;9330;52.210;21.174;2022-10-26T13:01:49;14.00;99.90
18408;DHT22;9330;52.210;21.174;2022-10-26T13:04:27;14.00;99.90
18408;DHT22;9330;52.210;21.174;2022-10-26T13:07:18;14.00;99.90
18408;DHT22;9330;52.210;21.174;2022-10-26T13:09:58;13.90;99.90
18408;DHT22;9330;52.210;21.174;2022-10-26T13:12:28;13.90;99.90
18408;DHT22;9330;52.210;21.174;2022-10-26T13:15:01;13.80;99.90
18408;DHT22;9330;52.210;21.174;2022-10-26T13:17:31;13.80;99.90
18408;DHT22;9330;52.210;21.174;2022-10-26T13:20:00;13.80;99.90
18408;DHT22;9330;52.210;21.174;2022-10-26T13:22:28;13.70;99.90
18408;DHT22;9330;52.210;21.174;2022-10-26T13:24:57;13.70;99.90
18408;DHT22;9330;52.210;21.174;2022-10-26T13:27:42;13.70;99.90
18408;DHT22;9330;52.210;21.174;2022-10-26T13:30:41;13.60;99.90
18408;DHT22;9330;52.210;21.174;2022-10-26T13:33:22;13.60;99.90
18408;DHT22;9330;52.210;21.174;2022-10-26T13:35:55;13.60;99.90
18408;DHT22;9330;52.210;21.174;2022-10-26T13:38:26;13.60;99.90
18408;DHT22;9330;52.210;21.174;2022-10-26T13:41:04;13.60;99.90
18408;DHT22;9330;52.210;21.174;2022-10-26T13:43:32;13.50;99.90
18408;DHT22;9330;52.210;21.174;2022-10-26T13:46:04;13.50;99.90
18408;DHT22;9330;52.210;21.174;2022-10-26T13:48:36;13.50;99.90
18408;DHT22;9330;52.210;21.174;2022-10-26T13:51:13;13.50;99.90
18408;DHT22;9330;52.210;21.174;2022-10-26T13:53:47;13.50;99.90
18408;DHT22;9330;52.210;21.174;2022-10-26T13:56:23;13.50;99.90
18408;DHT22;9330;52.210;21.174;2022-10-26T13:58:56;13.50;99.90
18408;DHT22;9330;52.210;21.174;2022-10-26T14:01:25;13.50;99.90
18408;DHT22;9330;52.210;21.174;2022-10-26T14:03:53;13.50;99.90
18408;DHT22;9330;52.210;21.174;2022-10-26T14:06:25;13.50;99.90
18408;DHT22;9330;52.210;21.174;2022-10-26T14:08:56;13.50;99.90
18408;DHT22;9330;52.210;21.174;2022-10-26T14:11:31;13.30;99.90
18408;DHT22;9330;52.210;21.174;2022-10-26T14:13:59;13.50;99.90
18408;DHT22;9330;52.210;21.174;2022-10-26T14:16:29;13.50;99.90
18408;DHT22;9330;52.210;21.174;2022-10-26T14:18:57;13.50;99.90
18408;DHT22;9330;52.210;21.174;2022-10-26T14:21:25;13.50;99.90
18408;DHT22;9330;52.210;21.174;2022-10-26T14:23:54;13.50;99.90
18408;DHT22;9330;52.210;21.174;2022-10-26T14:26:23;13.50;99.90
18408;DHT22;9330;52.210;21.174;2022-10-26T14:28:53;13.50;99.90
18408;DHT22;9330;52.210;21.174;2022-10-26T14:31:23;13.50;99.90
18408;DHT22;9330;52.210;21.174;2022-10-26T14:33:52;13.50;99.90
18408;DHT22;9330;52.210;21.174;2022-10-26T14:36:21;13.40;99.90
18408;DHT22;9330;52.210;21.174;2022-10-26T14:38:55;13.40;99.90
18408;DHT22;9330;52.210;21.174;2022-10-26T14:41:23;13.30;99.90
18408;DHT22;9330;52.210;21.174;2022-10-26T14:43:53;13.30;99.90
18408;DHT22;9330;52.210;21.174;2022-10-26T14:46:21;13.20;99.90
18408;DHT22;9330;52.210;21.174;2022-10-26T14:48:56;13.10;99.90
18408;DHT22;9330;52.210;21.174;2022-10-26T14:51:28;13.10;99.90
18408;DHT22;9330;52.210;21.174;2022-10-26T14:53:56;13.00;99.90
18408;DHT22;9330;52.210;21.174;2022-10-26T14:56:27;12.90;99.90
18408;DHT22;9330;52.210;21.174;2022-10-26T14:58:57;12.90;99.90
18408;DHT22;9330;52.210;21.174;2022-10-26T15:01:27;12.80;99.90
18408;DHT22;9330;52.210;21.174;2022-10-26T15:03:56;12.70;99.90
18408;DHT22;9330;52.210;21.174;2022-10-26T15:06:40;12.60;99.90
18408;DHT22;9330;52.210;21.174;2022-10-26T15:09:28;12.50;99.90
18408;DHT22;9330;52.210;21.174;2022-10-26T15:11:55;12.40;99.90
18408;DHT22;9330;52.210;21.174;2022-10-26T15:14:23;12.30;99.90
18408;DHT22;9330;52.210;21.174;2022-10-26T15:16:53;12.30;99.90
18408;DHT22;9330;52.210;21.174;2022-10-26T15:19:21;12.20;99.90
18408;DHT22;9330;52.210;21.174;2022-10-26T15:21:49;12.10;99.90
18408;DHT22;9330;52.210;21.174;2022-10-26T15:24:27;12.10;99.90
18408;DHT22;9330;52.210;21.174;2022-10-26T15:26:55;12.00;99.90
18408;DHT22;9330;52.210;21.174;2022-10-26T15:29:39;11.90;99.90
18408;DHT22;9330;52.210;21.174;2022-10-26T15:32:24;11.90;99.90
18408;DHT22;9330;52.210;21.174;2022-10-26T15:35:14;11.80;99.90
18408;DHT22;9330;52.210;21.174;2022-10-26T15:37:41;11.70;99.90
18408;DHT22;9330;52.210;21.174;2022-10-26T15:40:08;11.70;99.90
18408;DHT22;9330;52.210;21.174;2022-10-26T15:42:37;11.70;99.90
18408;DHT22;9330;52.210;21.174;2022-10-26T15:45:14;11.60;99.90
18408;DHT22;9330;52.210;21.174;2022-10-26T15:47:41;11.60;99.90
18408;DHT22;9330;52.210;21.174;2022-10-26T15:50:15;11.50;99.90
18408;DHT22;9330;52.210;21.174;2022-10-26T15:52:42;11.40;99.90
18408;DHT22;9330;52.210;21.174;2022-10-26T15:55:09;11.40;99.90
18408;DHT22;9330;52.210;21.174;2022-10-26T15:57:36;11.30;99.90
18408;DHT22;9330;52.210;21.174;2022-10-26T16:00:09;11.20;99.90
18408;DHT22;9330;52.210;21.174;2022-10-26T16:02:41;11.20;99.90
18408;DHT22;9330;52.210;21.174;2022-10-26T16:05:08;11.00;99.90
18408;DHT22;9330;52.210;21.174;2022-10-26T16:07:37;11.00;99.90
18408;DHT22;9330;52.210;21.174;2022-10-26T16:10:07;10.90;99.90
18408;DHT22;9330;52.210;21.174;2022-10-26T16:12:34;10.80;99.90
18408;DHT22;9330;52.210;21.174;2022-10-26T16:15:01;10.70;99.90